Brushy Creek, Texas
Current Conditions -  °F | °C
As of 7:51 AM on Thursday 27 Nov 2014 (Local Time) from KATT Reporting Station
Clear Clear  
Wind Chill: 43°   Ceiling: Unl
Heat Index: 46°   Visibility: 10mi
Dew Point: 32°   Wind: 6mph
Humidity: 58%   Direction: NA
Pressure: 30.5"   Gusts: NA
Location:  30.4953°N, 97.7592°W
Report Text: KATT 271351Z AUTO VRB05KT 10SM CLR 08/00 A3050 RMK AO2 SLP331 T00780000
Loading
Personal Weather Stations






























Interactive Weather Map New forecast layout! Learn more

10-Day Weather Forecast

Advertisements
Track Severe Weather on mobile